sensor_id;sensor_type;location;lat;lon;timestamp;temperature;humidity
22908;DHT22;11620;50.050;8.690;2023-05-10T00:02:46;12.90;99.90
22908;DHT22;11620;50.050;8.690;2023-05-10T00:05:32;12.80;99.90
22908;DHT22;11620;50.050;8.690;2023-05-10T00:08:18;12.60;99.90
22908;DHT22;11620;50.050;8.690;2023-05-10T00:11:05;12.40;99.90
22908;DHT22;11620;50.050;8.690;2023-05-10T00:13:51;12.30;99.90
22908;DHT22;11620;50.050;8.690;2023-05-10T00:16:37;12.30;99.90
22908;DHT22;11620;50.050;8.690;2023-05-10T00:19:24;12.20;99.90
22908;DHT22;11620;50.050;8.690;2023-05-10T00:22:10;12.10;99.90
22908;DHT22;11620;50.050;8.690;2023-05-10T00:24:56;11.90;99.90
22908;DHT22;11620;50.050;8.690;2023-05-10T00:27:43;11.90;99.90
22908;DHT22;11620;50.050;8.690;2023-05-10T00:30:29;12.00;99.90
22908;DHT22;11620;50.050;8.690;2023-05-10T00:33:15;12.10;99.90
22908;DHT22;11620;50.050;8.690;2023-05-10T00:36:02;12.00;99.90
22908;DHT22;11620;50.050;8.690;2023-05-10T00:38:48;12.00;99.90
22908;DHT22;11620;50.050;8.690;2023-05-10T00:41:35;11.90;99.90
22908;DHT22;11620;50.050;8.690;2023-05-10T00:44:21;12.00;99.90
22908;DHT22;11620;50.050;8.690;2023-05-10T00:47:08;12.00;99.90
22908;DHT22;11620;50.050;8.690;2023-05-10T00:49:54;12.00;99.90
22908;DHT22;11620;50.050;8.690;2023-05-10T00:52:42;11.90;99.90
22908;DHT22;11620;50.050;8.690;2023-05-10T00:55:28;11.80;99.90
22908;DHT22;11620;50.050;8.690;2023-05-10T00:58:15;11.70;99.90
22908;DHT22;11620;50.050;8.690;2023-05-10T01:01:01;11.60;99.90
22908;DHT22;11620;50.050;8.690;2023-05-10T01:03:48;11.70;99.90
22908;DHT22;11620;50.050;8.690;2023-05-10T01:06:34;11.70;99.90
22908;DHT22;11620;50.050;8.690;2023-05-10T01:09:21;11.60;99.90
22908;DHT22;11620;50.050;8.690;2023-05-10T01:12:08;11.60;99.90
22908;DHT22;11620;50.050;8.690;2023-05-10T01:14:54;11.50;99.90
22908;DHT22;11620;50.050;8.690;2023-05-10T01:17:42;11.50;99.90
22908;DHT22;11620;50.050;8.690;2023-05-10T01:20:37;11.50;99.90
22908;DHT22;11620;50.050;8.690;2023-05-10T01:33:35;11.50;99.90
22908;DHT22;11620;50.050;8.690;2023-05-10T01:36:32;11.40;99.90
22908;DHT22;11620;50.050;8.690;2023-05-10T01:39:25;11.50;99.90
22908;DHT22;11620;50.050;8.690;2023-05-10T01:42:20;11.50;99.90
22908;DHT22;11620;50.050;8.690;2023-05-10T01:45:20;11.50;99.90
22908;DHT22;11620;50.050;8.690;2023-05-10T01:48:10;11.50;99.90
22908;DHT22;11620;50.050;8.690;2023-05-10T01:50:57;11.50;99.90
22908;DHT22;11620;50.050;8.690;2023-05-10T01:53:45;11.30;99.90
22908;DHT22;11620;50.050;8.690;2023-05-10T01:56:35;11.30;99.90
22908;DHT22;11620;50.050;8.690;2023-05-10T01:59:22;11.30;99.90
22908;DHT22;11620;50.050;8.690;2023-05-10T02:02:12;11.40;99.90
22908;DHT22;11620;50.050;8.690;2023-05-10T02:04:59;11.30;99.90
22908;DHT22;11620;50.050;8.690;2023-05-10T02:07:46;11.30;99.90
22908;DHT22;11620;50.050;8.690;2023-05-10T02:10:37;11.30;99.90
22908;DHT22;11620;50.050;8.690;2023-05-10T02:13:26;11.30;99.90
22908;DHT22;11620;50.050;8.690;2023-05-10T02:16:13;11.20;99.90
22908;DHT22;11620;50.050;8.690;2023-05-10T02:19:02;11.30;99.90
22908;DHT22;11620;50.050;8.690;2023-05-10T02:21:49;11.20;99.90
22908;DHT22;11620;50.050;8.690;2023-05-10T02:24:37;11.30;99.90
22908;DHT22;11620;50.050;8.690;2023-05-10T02:27:26;11.30;99.90
22908;DHT22;11620;50.050;8.690;2023-05-10T02:30:13;11.20;99.90
22908;DHT22;11620;50.050;8.690;2023-05-10T02:33:01;11.10;99.90
22908;DHT22;11620;50.050;8.690;2023-05-10T02:35:51;11.10;99.90
22908;DHT22;11620;50.050;8.690;2023-05-10T02:38:37;11.10;99.90
22908;DHT22;11620;50.050;8.690;2023-05-10T02:41:25;11.20;99.90
22908;DHT22;11620;50.050;8.690;2023-05-10T02:44:15;11.30;99.90
22908;DHT22;11620;50.050;8.690;2023-05-10T02:47:01;11.20;99.90
22908;DHT22;11620;50.050;8.690;2023-05-10T02:49:48;11.20;99.90
22908;DHT22;11620;50.050;8.690;2023-05-10T02:52:49;11.20;99.90
22908;DHT22;11620;50.050;8.690;2023-05-10T02:55:40;11.30;99.90
22908;DHT22;11620;50.050;8.690;2023-05-10T02:58:26;11.30;99.90
22908;DHT22;11620;50.050;8.690;2023-05-10T03:01:13;11.30;99.90
22908;DHT22;11620;50.050;8.690;2023-05-10T03:03:59;11.30;99.90
22908;DHT22;11620;50.050;8.690;2023-05-10T03:06:45;11.20;99.90
22908;DHT22;11620;50.050;8.690;2023-05-10T03:09:32;11.20;99.90
22908;DHT22;11620;50.050;8.690;2023-05-10T03:16:06;11.30;99.90
22908;DHT22;11620;50.050;8.690;2023-05-10T03:19:01;11.30;99.90
22908;DHT22;11620;50.050;8.690;2023-05-10T03:21:50;11.30;99.90
22908;DHT22;11620;50.050;8.690;2023-05-10T03:24:39;11.30;99.90
22908;DHT22;11620;50.050;8.690;2023-05-10T03:27:27;11.20;99.90
22908;DHT22;11620;50.050;8.690;2023-05-10T03:30:14;11.10;99.90
22908;DHT22;11620;50.050;8.690;2023-05-10T03:33:05;11.20;99.90
22908;DHT22;11620;50.050;8.690;2023-05-10T03:35:52;11.30;99.90
22908;DHT22;11620;50.050;8.690;2023-05-10T03:38:38;11.40;99.90
22908;DHT22;11620;50.050;8.690;2023-05-10T03:41:25;11.40;99.90
22908;DHT22;11620;50.050;8.690;2023-05-10T03:44:11;11.40;99.90
22908;DHT22;11620;50.050;8.690;2023-05-10T03:46:57;11.50;99.90
22908;DHT22;11620;50.050;8.690;2023-05-10T03:49:44;11.50;99.90
22908;DHT22;11620;50.050;8.690;2023-05-10T03:52:30;11.50;99.90
22908;DHT22;11620;50.050;8.690;2023-05-10T03:55:17;11.60;99.90
22908;DHT22;11620;50.050;8.690;2023-05-10T03:58:03;11.50;99.90
22908;DHT22;11620;50.050;8.690;2023-05-10T04:00:51;11.60;99.90
22908;DHT22;11620;50.050;8.690;2023-05-10T04:03:37;11.50;99.90
22908;DHT22;11620;50.050;8.690;2023-05-10T04:06:24;11.40;99.90
22908;DHT22;11620;50.050;8.690;2023-05-10T04:09:10;11.50;99.90
22908;DHT22;11620;50.050;8.690;2023-05-10T04:11:58;11.60;99.90
22908;DHT22;11620;50.050;8.690;2023-05-10T04:14:44;11.40;99.90
22908;DHT22;11620;50.050;8.690;2023-05-10T04:17:30;11.30;99.90
22908;DHT22;11620;50.050;8.690;2023-05-10T04:20:17;11.40;99.90
22908;DHT22;11620;50.050;8.690;2023-05-10T04:23:03;11.30;99.90
22908;DHT22;11620;50.050;8.690;2023-05-10T04:25:50;11.30;99.90
22908;DHT22;11620;50.050;8.690;2023-05-10T04:28:36;11.30;99.90
22908;DHT22;11620;50.050;8.690;2023-05-10T04:31:22;11.30;99.90
22908;DHT22;11620;50.050;8.690;2023-05-10T04:34:08;11.30;99.90
22908;DHT22;11620;50.050;8.690;2023-05-10T04:36:55;11.30;99.90
22908;DHT22;11620;50.050;8.690;2023-05-10T04:39:41;11.30;99.90
22908;DHT22;11620;50.050;8.690;2023-05-10T04:42:27;11.30;99.90
22908;DHT22;11620;50.050;8.690;2023-05-10T04:45:14;11.30;99.90
22908;DHT22;11620;50.050;8.690;2023-05-10T04:48:03;11.40;99.90
22908;DHT22;11620;50.050;8.690;2023-05-10T04:50:49;11.30;99.90
22908;DHT22;11620;50.050;8.690;2023-05-10T04:53:35;11.20;99.90
22908;DHT22;11620;50.050;8.690;2023-05-10T04:56:22;11.30;99.90
22908;DHT22;11620;50.050;8.690;2023-05-10T04:59:08;11.40;99.90
22908;DHT22;11620;50.050;8.690;2023-05-10T05:01:54;11.60;99.90
22908;DHT22;11620;50.050;8.690;2023-05-10T05:04:41;11.60;99.90
22908;DHT22;11620;50.050;8.690;2023-05-10T05:07:27;11.40;99.90
22908;DHT22;11620;50.050;8.690;2023-05-10T05:10:13;11.50;99.90
22908;DHT22;11620;50.050;8.690;2023-05-10T05:13:00;11.40;99.90
22908;DHT22;11620;50.050;8.690;2023-05-10T05:15:46;11.50;99.90
22908;DHT22;11620;50.050;8.690;2023-05-10T05:18:32;11.50;99.90
22908;DHT22;11620;50.050;8.690;2023-05-10T05:21:19;11.50;99.90
22908;DHT22;11620;50.050;8.690;2023-05-10T05:24:06;11.50;99.90
22908;DHT22;11620;50.050;8.690;2023-05-10T05:26:52;11.50;99.90
22908;DHT22;11620;50.050;8.690;2023-05-10T05:29:38;11.40;99.90
22908;DHT22;11620;50.050;8.690;2023-05-10T05:32:25;11.50;99.90
22908;DHT22;11620;50.050;8.690;2023-05-10T05:35:11;11.50;99.90
22908;DHT22;11620;50.050;8.690;2023-05-10T05:37:59;11.50;99.90
22908;DHT22;11620;50.050;8.690;2023-05-10T05:40:45;11.50;99.90
22908;DHT22;11620;50.050;8.690;2023-05-10T05:43:32;11.60;99.90
22908;DHT22;11620;50.050;8.690;2023-05-10T05:46:18;11.70;99.90
22908;DHT22;11620;50.050;8.690;2023-05-10T05:49:04;11.70;99.90
22908;DHT22;11620;50.050;8.690;2023-05-10T05:51:50;11.60;99.90
22908;DHT22;11620;50.050;8.690;2023-05-10T05:54:37;11.50;99.90
22908;DHT22;11620;50.050;8.690;2023-05-10T05:57:23;11.50;99.90
22908;DHT22;11620;50.050;8.690;2023-05-10T06:00:10;11.70;99.90
22908;DHT22;11620;50.050;8.690;2023-05-10T06:02:56;11.70;99.90
22908;DHT22;11620;50.050;8.690;2023-05-10T06:05:43;11.80;99.90
22908;DHT22;11620;50.050;8.690;2023-05-10T06:08:29;11.70;99.90
22908;DHT22;11620;50.050;8.690;2023-05-10T06:11:15;11.60;99.90
22908;DHT22;11620;50.050;8.690;2023-05-10T06:14:03;11.70;99.90
22908;DHT22;11620;50.050;8.690;2023-05-10T06:16:50;11.70;99.90
22908;DHT22;11620;50.050;8.690;2023-05-10T06:19:36;11.80;99.90
22908;DHT22;11620;50.050;8.690;2023-05-10T06:22:23;11.70;99.90
22908;DHT22;11620;50.050;8.690;2023-05-10T06:25:09;11.90;99.90
22908;DHT22;11620;50.050;8.690;2023-05-10T06:27:56;11.90;99.90
22908;DHT22;11620;50.050;8.690;2023-05-10T06:30:43;12.00;99.90
22908;DHT22;11620;50.050;8.690;2023-05-10T06:33:30;12.00;99.90
22908;DHT22;11620;50.050;8.690;2023-05-10T06:36:17;12.00;99.90
22908;DHT22;11620;50.050;8.690;2023-05-10T06:39:03;11.90;99.90
22908;DHT22;11620;50.050;8.690;2023-05-10T06:41:49;11.80;99.90
22908;DHT22;11620;50.050;8.690;2023-05-10T06:44:36;11.90;99.90
22908;DHT22;11620;50.050;8.690;2023-05-10T06:47:22;11.80;99.90
22908;DHT22;11620;50.050;8.690;2023-05-10T06:50:09;11.90;99.90
22908;DHT22;11620;50.050;8.690;2023-05-10T06:52:56;11.80;99.90
22908;DHT22;11620;50.050;8.690;2023-05-10T06:55:42;11.80;99.90
22908;DHT22;11620;50.050;8.690;2023-05-10T06:58:29;11.90;99.90
22908;DHT22;11620;50.050;8.690;2023-05-10T07:01:15;11.80;99.90
22908;DHT22;11620;50.050;8.690;2023-05-10T07:04:01;11.80;99.90
22908;DHT22;11620;50.050;8.690;2023-05-10T07:06:48;11.70;99.90
22908;DHT22;11620;50.050;8.690;2023-05-10T07:09:35;11.80;99.90
22908;DHT22;11620;50.050;8.690;2023-05-10T07:12:22;11.90;99.90
22908;DHT22;11620;50.050;8.690;2023-05-10T07:15:09;11.90;99.90
22908;DHT22;11620;50.050;8.690;2023-05-10T07:17:55;11.80;99.90
22908;DHT22;11620;50.050;8.690;2023-05-10T07:20:41;11.80;99.90
22908;DHT22;11620;50.050;8.690;2023-05-10T07:23:28;11.90;99.90
22908;DHT22;11620;50.050;8.690;2023-05-10T07:26:14;12.00;99.90
22908;DHT22;11620;50.050;8.690;2023-05-10T07:29:00;12.20;99.90
22908;DHT22;11620;50.050;8.690;2023-05-10T07:31:47;12.30;99.90
22908;DHT22;11620;50.050;8.690;2023-05-10T07:34:33;12.40;99.90
22908;DHT22;11620;50.050;8.690;2023-05-10T07:37:20;12.10;99.90
22908;DHT22;11620;50.050;8.690;2023-05-10T07:40:06;12.00;99.90
22908;DHT22;11620;50.050;8.690;2023-05-10T07:42:53;12.20;99.90
22908;DHT22;11620;50.050;8.690;2023-05-10T07:45:39;12.00;99.90
22908;DHT22;11620;50.050;8.690;2023-05-10T07:48:26;12.00;99.90
22908;DHT22;11620;50.050;8.690;2023-05-10T07:51:12;12.10;99.90
22908;DHT22;11620;50.050;8.690;2023-05-10T07:53:58;12.20;99.90
22908;DHT22;11620;50.050;8.690;2023-05-10T07:56:45;12.50;99.90
22908;DHT22;11620;50.050;8.690;2023-05-10T07:59:33;12.50;99.90
22908;DHT22;11620;50.050;8.690;2023-05-10T08:02:19;12.60;99.90
22908;DHT22;11620;50.050;8.690;2023-05-10T08:05:06;12.70;99.90
22908;DHT22;11620;50.050;8.690;2023-05-10T08:07:52;12.80;99.90
22908;DHT22;11620;50.050;8.690;2023-05-10T08:10:38;12.90;99.90
22908;DHT22;11620;50.050;8.690;2023-05-10T08:13:24;12.90;99.90
22908;DHT22;11620;50.050;8.690;2023-05-10T08:16:11;12.90;99.90
22908;DHT22;11620;50.050;8.690;2023-05-10T08:18:57;13.00;99.90
22908;DHT22;11620;50.050;8.690;2023-05-10T08:21:44;13.00;99.90
22908;DHT22;11620;50.050;8.690;2023-05-10T08:24:30;13.20;99.90
22908;DHT22;11620;50.050;8.690;2023-05-10T08:27:16;13.20;99.90
22908;DHT22;11620;50.050;8.690;2023-05-10T08:30:03;13.40;99.90
22908;DHT22;11620;50.050;8.690;2023-05-10T08:32:49;13.40;99.90
22908;DHT22;11620;50.050;8.690;2023-05-10T08:35:35;13.50;99.90
22908;DHT22;11620;50.050;8.690;2023-05-10T08:38:22;13.50;99.90
22908;DHT22;11620;50.050;8.690;2023-05-10T08:41:10;13.30;99.90
22908;DHT22;11620;50.050;8.690;2023-05-10T08:43:57;13.30;99.90
22908;DHT22;11620;50.050;8.690;2023-05-10T08:46:46;13.40;99.90
22908;DHT22;11620;50.050;8.690;2023-05-10T08:49:33;13.40;99.90
22908;DHT22;11620;50.050;8.690;2023-05-10T08:52:20;13.50;99.90
22908;DHT22;11620;50.050;8.690;2023-05-10T08:55:07;13.50;99.90
22908;DHT22;11620;50.050;8.690;2023-05-10T08:57:54;13.70;99.90
22908;DHT22;11620;50.050;8.690;2023-05-10T09:00:40;13.90;99.90
22908;DHT22;11620;50.050;8.690;2023-05-10T09:03:27;14.20;99.90
22908;DHT22;11620;50.050;8.690;2023-05-10T09:06:13;14.40;99.90
22908;DHT22;11620;50.050;8.690;2023-05-10T09:09:01;14.50;99.90
22908;DHT22;11620;50.050;8.690;2023-05-10T09:11:49;14.50;99.90
22908;DHT22;11620;50.050;8.690;2023-05-10T09:14:35;14.50;99.90
22908;DHT22;11620;50.050;8.690;2023-05-10T09:17:24;14.50;99.90
22908;DHT22;11620;50.050;8.690;2023-05-10T09:20:11;14.50;99.90
22908;DHT22;11620;50.050;8.690;2023-05-10T09:22:57;14.50;99.90
22908;DHT22;11620;50.050;8.690;2023-05-10T09:25:43;14.40;99.90
22908;DHT22;11620;50.050;8.690;2023-05-10T09:28:52;14.30;99.90
22908;DHT22;11620;50.050;8.690;2023-05-10T09:34:36;14.10;99.90
22908;DHT22;11620;50.050;8.690;2023-05-10T09:37:34;14.20;99.90
22908;DHT22;11620;50.050;8.690;2023-05-10T09:40:23;14.40;99.90
22908;DHT22;11620;50.050;8.690;2023-05-10T09:43:09;14.10;99.90
22908;DHT22;11620;50.050;8.690;2023-05-10T09:45:56;13.90;99.90
22908;DHT22;11620;50.050;8.690;2023-05-10T09:48:45;14.10;99.90
22908;DHT22;11620;50.050;8.690;2023-05-10T09:51:31;14.10;99.90
22908;DHT22;11620;50.050;8.690;2023-05-10T09:54:18;14.00;99.90
22908;DHT22;11620;50.050;8.690;2023-05-10T09:57:04;13.80;99.90
22908;DHT22;11620;50.050;8.690;2023-05-10T09:59:51;13.70;99.90
22908;DHT22;11620;50.050;8.690;2023-05-10T10:02:39;13.80;99.90
22908;DHT22;11620;50.050;8.690;2023-05-10T10:05:30;13.60;99.90
22908;DHT22;11620;50.050;8.690;2023-05-10T10:08:17;13.60;99.90
22908;DHT22;11620;50.050;8.690;2023-05-10T10:11:04;13.40;99.90
22908;DHT22;11620;50.050;8.690;2023-05-10T10:13:50;13.50;99.90
22908;DHT22;11620;50.050;8.690;2023-05-10T10:16:37;13.40;99.90
22908;DHT22;11620;50.050;8.690;2023-05-10T10:19:23;13.40;99.90
22908;DHT22;11620;50.050;8.690;2023-05-10T10:22:09;13.30;99.90
22908;DHT22;11620;50.050;8.690;2023-05-10T10:24:59;13.20;99.90
22908;DHT22;11620;50.050;8.690;2023-05-10T10:30:43;13.30;99.90
22908;DHT22;11620;50.050;8.690;2023-05-10T10:34:09;13.50;99.90
22908;DHT22;11620;50.050;8.690;2023-05-10T10:36:57;13.60;99.90
22908;DHT22;11620;50.050;8.690;2023-05-10T10:39:49;13.60;99.90
22908;DHT22;11620;50.050;8.690;2023-05-10T10:42:46;13.60;99.90
22908;DHT22;11620;50.050;8.690;2023-05-10T10:45:32;13.40;99.90
22908;DHT22;11620;50.050;8.690;2023-05-10T10:48:23;13.50;99.90
22908;DHT22;11620;50.050;8.690;2023-05-10T10:51:09;13.50;99.90
22908;DHT22;11620;50.050;8.690;2023-05-10T10:54:08;13.70;99.90
22908;DHT22;11620;50.050;8.690;2023-05-10T10:57:14;14.00;99.90
22908;DHT22;11620;50.050;8.690;2023-05-10T11:03:09;14.60;99.90
22908;DHT22;11620;50.050;8.690;2023-05-10T11:05:59;14.80;99.90
22908;DHT22;11620;50.050;8.690;2023-05-10T11:08:47;15.10;99.90
22908;DHT22;11620;50.050;8.690;2023-05-10T11:11:35;15.20;99.90
22908;DHT22;11620;50.050;8.690;2023-05-10T11:14:21;15.20;99.90
22908;DHT22;11620;50.050;8.690;2023-05-10T11:17:27;14.80;99.90
22908;DHT22;11620;50.050;8.690;2023-05-10T11:20:15;14.60;99.90
22908;DHT22;11620;50.050;8.690;2023-05-10T11:23:12;14.30;99.90
22908;DHT22;11620;50.050;8.690;2023-05-10T11:26:00;14.30;99.90
22908;DHT22;11620;50.050;8.690;2023-05-10T11:28:48;14.20;99.90
22908;DHT22;11620;50.050;8.690;2023-05-10T11:31:34;14.20;99.90
22908;DHT22;11620;50.050;8.690;2023-05-10T11:34:29;14.10;99.90
22908;DHT22;11620;50.050;8.690;2023-05-10T11:37:21;13.60;99.90
22908;DHT22;11620;50.050;8.690;2023-05-10T11:40:08;13.80;99.90
22908;DHT22;11620;50.050;8.690;2023-05-10T11:42:56;13.80;99.90
22908;DHT22;11620;50.050;8.690;2023-05-10T11:45:42;13.80;99.90
22908;DHT22;11620;50.050;8.690;2023-05-10T11:48:29;14.10;99.90
22908;DHT22;11620;50.050;8.690;2023-05-10T11:51:20;14.00;99.90
22908;DHT22;11620;50.050;8.690;2023-05-10T11:54:08;14.00;99.90
22908;DHT22;11620;50.050;8.690;2023-05-10T11:56:55;14.10;99.90
22908;DHT22;11620;50.050;8.690;2023-05-10T11:59:41;14.30;99.90
22908;DHT22;11620;50.050;8.690;2023-05-10T12:02:29;14.40;99.90
22908;DHT22;11620;50.050;8.690;2023-05-10T12:05:16;14.60;99.90
22908;DHT22;11620;50.050;8.690;2023-05-10T12:08:15;14.70;99.90
22908;DHT22;11620;50.050;8.690;2023-05-10T12:11:09;14.60;99.90
22908;DHT22;11620;50.050;8.690;2023-05-10T12:13:58;15.00;99.90
22908;DHT22;11620;50.050;8.690;2023-05-10T12:16:44;15.00;99.90
22908;DHT22;11620;50.050;8.690;2023-05-10T12:19:38;15.20;99.90
22908;DHT22;11620;50.050;8.690;2023-05-10T12:22:24;15.40;99.90
22908;DHT22;11620;50.050;8.690;2023-05-10T12:25:11;15.60;99.90
22908;DHT22;11620;50.050;8.690;2023-05-10T12:27:58;15.90;99.90
22908;DHT22;11620;50.050;8.690;2023-05-10T12:30:46;16.00;99.90
22908;DHT22;11620;50.050;8.690;2023-05-10T12:33:37;16.10;99.90
22908;DHT22;11620;50.050;8.690;2023-05-10T12:36:25;16.40;99.90
22908;DHT22;11620;50.050;8.690;2023-05-10T12:39:11;16.70;99.90
22908;DHT22;11620;50.050;8.690;2023-05-10T12:41:58;16.80;99.90
22908;DHT22;11620;50.050;8.690;2023-05-10T12:44:44;16.60;99.90
22908;DHT22;11620;50.050;8.690;2023-05-10T12:47:31;16.90;99.90
22908;DHT22;11620;50.050;8.690;2023-05-10T12:50:17;16.60;99.90
22908;DHT22;11620;50.050;8.690;2023-05-10T12:53:04;16.70;99.90
22908;DHT22;11620;50.050;8.690;2023-05-10T12:55:50;17.10;99.90
22908;DHT22;11620;50.050;8.690;2023-05-10T12:58:36;17.20;99.90
22908;DHT22;11620;50.050;8.690;2023-05-10T13:01:22;17.20;99.90
22908;DHT22;11620;50.050;8.690;2023-05-10T13:04:09;16.80;99.90
22908;DHT22;11620;50.050;8.690;2023-05-10T13:06:55;17.10;99.90
22908;DHT22;11620;50.050;8.690;2023-05-10T13:09:44;17.30;99.90
22908;DHT22;11620;50.050;8.690;2023-05-10T13:12:31;17.40;99.90
22908;DHT22;11620;50.050;8.690;2023-05-10T13:15:17;17.40;99.90
22908;DHT22;11620;50.050;8.690;2023-05-10T13:18:04;17.40;99.90
22908;DHT22;11620;50.050;8.690;2023-05-10T13:20:50;17.40;99.90
22908;DHT22;11620;50.050;8.690;2023-05-10T13:23:36;17.10;99.90
22908;DHT22;11620;50.050;8.690;2023-05-10T13:26:23;16.90;99.90
22908;DHT22;11620;50.050;8.690;2023-05-10T13:29:09;17.00;99.90
22908;DHT22;11620;50.050;8.690;2023-05-10T13:31:56;17.10;99.90
22908;DHT22;11620;50.050;8.690;2023-05-10T13:34:42;17.20;99.90
22908;DHT22;11620;50.050;8.690;2023-05-10T13:37:29;17.00;99.90
22908;DHT22;11620;50.050;8.690;2023-05-10T13:40:15;17.10;99.90
22908;DHT22;11620;50.050;8.690;2023-05-10T13:43:02;17.50;99.90
22908;DHT22;11620;50.050;8.690;2023-05-10T13:45:48;17.80;99.90
22908;DHT22;11620;50.050;8.690;2023-05-10T13:48:34;18.10;99.90
22908;DHT22;11620;50.050;8.690;2023-05-10T13:51:22;18.30;99.90
22908;DHT22;11620;50.050;8.690;2023-05-10T13:54:09;18.50;99.90
22908;DHT22;11620;50.050;8.690;2023-05-10T13:56:55;18.50;99.90
22908;DHT22;11620;50.050;8.690;2023-05-10T13:59:41;18.20;99.90
22908;DHT22;11620;50.050;8.690;2023-05-10T14:02:28;17.80;99.90
22908;DHT22;11620;50.050;8.690;2023-05-10T14:05:14;17.40;99.90
22908;DHT22;11620;50.050;8.690;2023-05-10T14:08:00;17.40;99.90
22908;DHT22;11620;50.050;8.690;2023-05-10T14:10:47;17.50;99.90
22908;DHT22;11620;50.050;8.690;2023-05-10T14:13:34;17.20;99.90
22908;DHT22;11620;50.050;8.690;2023-05-10T14:16:21;16.90;99.90
22908;DHT22;11620;50.050;8.690;2023-05-10T14:19:07;16.90;99.90
22908;DHT22;11620;50.050;8.690;2023-05-10T14:21:54;16.70;99.90
22908;DHT22;11620;50.050;8.690;2023-05-10T14:24:40;16.80;99.90
22908;DHT22;11620;50.050;8.690;2023-05-10T14:27:27;16.70;99.90
22908;DHT22;11620;50.050;8.690;2023-05-10T14:30:13;16.60;99.90
22908;DHT22;11620;50.050;8.690;2023-05-10T14:33:01;16.70;99.90
22908;DHT22;11620;50.050;8.690;2023-05-10T14:35:48;16.80;99.90
22908;DHT22;11620;50.050;8.690;2023-05-10T14:38:34;17.00;99.90
22908;DHT22;11620;50.050;8.690;2023-05-10T14:41:20;17.10;99.90
22908;DHT22;11620;50.050;8.690;2023-05-10T14:44:07;17.00;99.90
22908;DHT22;11620;50.050;8.690;2023-05-10T14:46:53;17.30;99.90
22908;DHT22;11620;50.050;8.690;2023-05-10T14:49:39;17.50;99.90
22908;DHT22;11620;50.050;8.690;2023-05-10T14:52:26;17.60;99.90
22908;DHT22;11620;50.050;8.690;2023-05-10T14:55:14;17.50;99.90
22908;DHT22;11620;50.050;8.690;2023-05-10T14:58:02;17.10;99.90
22908;DHT22;11620;50.050;8.690;2023-05-10T15:00:48;17.00;99.90
22908;DHT22;11620;50.050;8.690;2023-05-10T15:03:34;17.10;99.90
22908;DHT22;11620;50.050;8.690;2023-05-10T15:06:30;17.10;99.90
22908;DHT22;11620;50.050;8.690;2023-05-10T15:09:17;17.00;99.90
22908;DHT22;11620;50.050;8.690;2023-05-10T15:12:04;17.10;99.90
22908;DHT22;11620;50.050;8.690;2023-05-10T15:14:50;17.00;99.90
22908;DHT22;11620;50.050;8.690;2023-05-10T15:17:36;17.10;99.90
22908;DHT22;11620;50.050;8.690;2023-05-10T15:20:23;16.70;99.90
22908;DHT22;11620;50.050;8.690;2023-05-10T15:23:09;16.70;99.90
22908;DHT22;11620;50.050;8.690;2023-05-10T15:25:55;16.80;99.90
22908;DHT22;11620;50.050;8.690;2023-05-10T15:28:42;16.80;99.90
22908;DHT22;11620;50.050;8.690;2023-05-10T15:31:28;16.90;99.90
22908;DHT22;11620;50.050;8.690;2023-05-10T15:34:16;17.00;99.90
22908;DHT22;11620;50.050;8.690;2023-05-10T15:37:02;17.00;99.90
22908;DHT22;11620;50.050;8.690;2023-05-10T15:39:49;17.00;99.90
22908;DHT22;11620;50.050;8.690;2023-05-10T15:42:35;16.90;99.90
22908;DHT22;11620;50.050;8.690;2023-05-10T15:45:21;16.90;99.90
22908;DHT22;11620;50.050;8.690;2023-05-10T15:48:08;16.60;99.90
22908;DHT22;11620;50.050;8.690;2023-05-10T15:50:55;16.70;99.90
22908;DHT22;11620;50.050;8.690;2023-05-10T15:53:41;16.60;99.90
22908;DHT22;11620;50.050;8.690;2023-05-10T15:56:28;16.50;99.90
22908;DHT22;11620;50.050;8.690;2023-05-10T15:59:15;16.40;99.90
22908;DHT22;11620;50.050;8.690;2023-05-10T16:02:01;16.30;99.90
22908;DHT22;11620;50.050;8.690;2023-05-10T16:04:49;16.20;99.90
22908;DHT22;11620;50.050;8.690;2023-05-10T16:07:36;16.20;99.90
22908;DHT22;11620;50.050;8.690;2023-05-10T16:10:23;16.00;99.90
22908;DHT22;11620;50.050;8.690;2023-05-10T16:13:09;16.10;99.90
22908;DHT22;11620;50.050;8.690;2023-05-10T16:15:55;16.30;99.90
22908;DHT22;11620;50.050;8.690;2023-05-10T16:18:43;16.30;99.90
22908;DHT22;11620;50.050;8.690;2023-05-10T16:21:30;16.20;99.90
22908;DHT22;11620;50.050;8.690;2023-05-10T16:24:19;16.40;99.90
22908;DHT22;11620;50.050;8.690;2023-05-10T16:27:06;16.40;99.90
22908;DHT22;11620;50.050;8.690;2023-05-10T16:29:52;16.30;99.90
22908;DHT22;11620;50.050;8.690;2023-05-10T16:32:38;16.20;99.90
22908;DHT22;11620;50.050;8.690;2023-05-10T16:35:25;16.30;99.90
22908;DHT22;11620;50.050;8.690;2023-05-10T16:38:11;16.10;99.90
22908;DHT22;11620;50.050;8.690;2023-05-10T16:41:01;16.20;99.90
22908;DHT22;11620;50.050;8.690;2023-05-10T16:43:47;16.20;99.90
22908;DHT22;11620;50.050;8.690;2023-05-10T16:46:34;16.20;99.90
22908;DHT22;11620;50.050;8.690;2023-05-10T16:49:20;16.30;99.90
22908;DHT22;11620;50.050;8.690;2023-05-10T16:52:07;16.10;99.90
22908;DHT22;11620;50.050;8.690;2023-05-10T16:54:54;16.00;99.90
22908;DHT22;11620;50.050;8.690;2023-05-10T16:57:40;15.90;99.90
22908;DHT22;11620;50.050;8.690;2023-05-10T17:00:27;15.90;99.90
22908;DHT22;11620;50.050;8.690;2023-05-10T17:03:13;15.70;99.90
22908;DHT22;11620;50.050;8.690;2023-05-10T17:05:59;15.70;99.90
22908;DHT22;11620;50.050;8.690;2023-05-10T17:08:46;15.60;99.90
22908;DHT22;11620;50.050;8.690;2023-05-10T17:11:32;15.60;99.90
22908;DHT22;11620;50.050;8.690;2023-05-10T17:14:19;15.60;99.90
22908;DHT22;11620;50.050;8.690;2023-05-10T17:17:05;15.70;99.90
22908;DHT22;11620;50.050;8.690;2023-05-10T17:19:52;15.50;99.90
22908;DHT22;11620;50.050;8.690;2023-05-10T17:22:38;15.80;99.90
22908;DHT22;11620;50.050;8.690;2023-05-10T17:25:24;15.80;99.90
22908;DHT22;11620;50.050;8.690;2023-05-10T17:28:11;15.90;99.90
22908;DHT22;11620;50.050;8.690;2023-05-10T17:30:57;15.80;99.90
22908;DHT22;11620;50.050;8.690;2023-05-10T17:33:44;15.80;99.90
22908;DHT22;11620;50.050;8.690;2023-05-10T17:36:30;15.60;99.90
22908;DHT22;11620;50.050;8.690;2023-05-10T17:39:17;15.50;99.90
22908;DHT22;11620;50.050;8.690;2023-05-10T17:42:03;15.50;99.90
22908;DHT22;11620;50.050;8.690;2023-05-10T17:44:50;15.70;99.90
22908;DHT22;11620;50.050;8.690;2023-05-10T17:47:36;15.60;99.90
22908;DHT22;11620;50.050;8.690;2023-05-10T17:50:23;15.60;99.90
22908;DHT22;11620;50.050;8.690;2023-05-10T17:53:09;15.60;99.90
22908;DHT22;11620;50.050;8.690;2023-05-10T17:55:56;15.60;99.90
22908;DHT22;11620;50.050;8.690;2023-05-10T17:58:44;15.40;99.90
22908;DHT22;11620;50.050;8.690;2023-05-10T18:01:30;15.50;99.90